MiSS Aimee — WAN9966 — position and weather

sailwx.info

Track history (hours):
 
Tides and Currents Weather Stations Pressure Air Temp Water Temp Dewpoint Dewpoint Depression Visibility Wind Speed Wind Dir Waves Ship Positions

MiSS Aimee

Owner: PATTERSON MARINE INC, MORGAN CITY, LA. More information available from US FCC via Universal Licensing System and Coast Guard Vessel Documentation Center.

Last reported at 2018-Feb-24 23:55 UTC. Time now 2018-Feb-25 00:19 UTC.
Position N 29°42' W 095°03'.

Length 16 m.

MMSI: 367060130.

Date/timePositionNaut miles runAvg speedWind from/ knotsBaromVisibWave heightAir tempDewpointWater temp
2018-Feb-24 23:55N 29°42' W 095°03'0 0.0
2018-Feb-24 23:29N 29°42' W 095°03'0 0.0
2018-Feb-24 22:59N 29°42' W 095°03'0 0.0
2018-Feb-24 22:30N 29°42' W 095°03'0 0.0
2018-Feb-24 22:00N 29°42' W 095°03'0 0.0
2018-Feb-24 21:29N 29°42' W 095°03'0 0.0
2018-Feb-24 21:01N 29°42' W 095°03'0 0.0
2018-Feb-24 20:31N 29°42' W 095°03'0 0.6
2018-Feb-24 20:01N 29°42' W 095°03'1 1.9
2018-Feb-24 19:17N 29°44' W 095°02'11 0.4
2018-Feb-23 16:44N 29°43' W 095°14'1 0.2
2018-Feb-23 12:25N 29°43' W 095°15'0 0.0
2018-Feb-23 09:33N 29°43' W 095°15'0 0.0
2018-Feb-23 09:29N 29°43' W 095°15'0 0.0
2018-Feb-23 06:19N 29°43' W 095°15'0 0.0
2018-Feb-23 04:46N 29°43' W 095°15'0 0.0
2018-Feb-23 03:47N 29°43' W 095°15'0 0.0
2018-Feb-23 03:19N 29°43' W 095°15'3 0.7
2018-Feb-22 22:13N 29°45' W 095°12'2 5.7
2018-Feb-22 21:55N 29°44' W 095°10'2 6.2
2018-Feb-22 21:31N 29°44' W 095°07'3 4.1
2018-Feb-22 20:51N 29°44' W 095°04'2 5.5
2018-Feb-22 20:24N 29°43' W 095°01'1 3.5
2018-Feb-22 20:00N 29°43' W 095°03'0 0.5
2018-Feb-22 19:30N 29°42' W 095°03'0 0.0
2018-Feb-22 19:00N 29°42' W 095°03'0 0.0
2018-Feb-22 18:28N 29°42' W 095°03'0 0.0
2018-Feb-22 17:56N 29°42' W 095°03'0 0.0
2018-Feb-22 17:30N 29°42' W 095°03'0 0.0
2018-Feb-22 16:53N 29°42' W 095°03'0 0.0
2018-Feb-22 16:27N 29°42' W 095°03'0 0.0
2018-Feb-22 15:58N 29°42' W 095°03'0 0.0
2018-Feb-22 15:31N 29°42' W 095°03'0 0.0
2018-Feb-22 15:00N 29°42' W 095°03'0 0.0
2018-Feb-22 14:23N 29°42' W 095°03'0 0.0
2018-Feb-22 13:54N 29°42' W 095°03'0 0.0
2018-Feb-22 12:09N 29°42' W 095°03'0 0.0
2018-Feb-22 11:51N 29°42' W 095°03'0 0.0
2018-Feb-22 11:24N 29°42' W 095°03'0 0.0
2018-Feb-22 10:57N 29°42' W 095°03'0 0.0
2018-Feb-22 10:30N 29°42' W 095°03'0 0.0
2018-Feb-22 09:55N 29°42' W 095°03'0 0.0
2018-Feb-22 09:24N 29°42' W 095°03'0 0.0
2018-Feb-22 08:47N 29°42' W 095°03'0 0.0
2018-Feb-22 08:30N 29°42' W 095°03'0 0.0
2018-Feb-22 07:51N 29°42' W 095°03'0 0.0
2018-Feb-22 07:15N 29°42' W 095°03'0 0.0
2018-Feb-22 07:00N 29°42' W 095°03'0 0.0
2018-Feb-22 06:23N 29°42' W 095°03'0 0.0
2018-Feb-22 04:55N 29°42' W 095°03'0 0.0
2018-Feb-22 04:30N 29°42' W 095°03'0 0.0
2018-Feb-22 03:50N 29°42' W 095°03'0 0.0
2018-Feb-22 03:29N 29°42' W 095°03'0 0.0
2018-Feb-22 02:59N 29°42' W 095°03'0 0.0
2018-Feb-22 02:24N 29°42' W 095°03'0 0.0
2018-Feb-22 01:54N 29°42' W 095°03'0 0.0
2018-Feb-22 01:29N 29°42' W 095°03'0 0.0
2018-Feb-22 01:00N 29°42' W 095°03'0 0.0
2018-Feb-22 00:19N 29°42' W 095°03'0 0.0
2018-Feb-21 23:39N 29°42' W 095°03'0 0.0
2018-Feb-21 23:30N 29°42' W 095°03'0 0.0
2018-Feb-21 22:54N 29°42' W 095°03'0 0.0
2018-Feb-21 22:29N 29°42' W 095°03'0 0.0
2018-Feb-21 21:59N 29°42' W 095°03'0 0.0
2018-Feb-21 14:35N 29°42' W 095°03'0 0.0
2018-Feb-21 14:29N 29°42' W 095°03'0 0.0
2018-Feb-21 13:57N 29°42' W 095°03'0 0.0
2018-Feb-21 13:29N 29°42' W 095°03'0 0.0
2018-Feb-21 13:00N 29°42' W 095°03'0 0.0
2018-Feb-21 12:27N 29°42' W 095°03'0 0.0
2018-Feb-21 11:59N 29°42' W 095°03'0 0.0
2018-Feb-21 11:29N 29°42' W 095°03'0 0.0
2018-Feb-21 10:59N 29°42' W 095°03'0 0.0
2018-Feb-21 10:24N 29°42' W 095°03'0 0.0
2018-Feb-21 10:00N 29°42' W 095°03'0 0.0
2018-Feb-21 09:30N 29°42' W 095°03'0 0.0
2018-Feb-21 09:00N 29°42' W 095°03'0 0.0
2018-Feb-21 08:26N 29°42' W 095°03'0 0.0
2018-Feb-21 07:59N 29°42' W 095°03'0 0.0
2018-Feb-21 07:30N 29°42' W 095°03'0 0.0
2018-Feb-21 06:59N 29°42' W 095°03'0 0.0
2018-Feb-21 06:29N 29°42' W 095°03'0 0.0
2018-Feb-21 05:56N 29°42' W 095°03'0 0.0
2018-Feb-21 05:30N 29°42' W 095°03'0 0.0
2018-Feb-21 04:59N 29°42' W 095°03'0 0.0
2018-Feb-21 04:30N 29°42' W 095°03'0 0.0
2018-Feb-21 04:00N 29°42' W 095°03'0 0.0
2018-Feb-21 03:30N 29°42' W 095°03'0 0.0
2018-Feb-21 03:00N 29°42' W 095°03'0 0.0
2018-Feb-21 02:30N 29°42' W 095°03'0 0.0
2018-Feb-21 02:00N 29°42' W 095°03'0 0.0
2018-Feb-21 01:28N 29°42' W 095°03'0 0.0
2018-Feb-21 01:00N 29°42' W 095°03'0 0.0
2018-Feb-21 00:30N 29°42' W 095°03'0 0.4
2018-Feb-20 23:53N 29°42' W 095°03'0 0.5
2018-Feb-20 23:29N 29°42' W 095°03'0 0.0
2018-Feb-20 22:57N 29°42' W 095°03'0 0.0
2018-Feb-20 22:22N 29°42' W 095°03'0 0.1
2018-Feb-20 21:58N 29°42' W 095°03'0 0.0
2018-Feb-20 21:30N 29°42' W 095°03'0 0.0
2018-Feb-20 21:00N 29°42' W 095°03'0 0.0
2018-Feb-20 15:57N 29°42' W 095°03'0 0.0
2018-Feb-20 15:30N 29°42' W 095°03'0 0.0
2018-Feb-20 15:00N 29°42' W 095°03'0 0.2
2018-Feb-20 14:30N 29°42' W 095°03'0 0.0
2018-Feb-20 14:00N 29°42' W 095°03'0 0.0
2018-Feb-20 13:30N 29°42' W 095°03'0 0.0
2018-Feb-20 11:50N 29°42' W 095°03'0 0.0
2018-Feb-20 11:09N 29°42' W 095°03'0 0.0
2018-Feb-20 09:49N 29°42' W 095°03'0 0.0
2018-Feb-20 09:28N 29°42' W 095°03'0 0.0
2018-Feb-20 08:59N 29°42' W 095°03'0 0.0
2018-Feb-20 08:23N 29°42' W 095°03'0 0.0
2018-Feb-20 08:00N 29°42' W 095°03'0 0.0
2018-Feb-20 07:30N 29°42' W 095°03'0 0.0
2018-Feb-20 07:00N 29°42' W 095°03'0 0.0
2018-Feb-20 06:30N 29°42' W 095°03'0 0.0
2018-Feb-20 06:00N 29°42' W 095°03'0 0.0
2018-Feb-20 05:29N 29°42' W 095°03'0 0.0
2018-Feb-20 04:59N 29°42' W 095°03'0 0.0
2018-Feb-20 04:30N 29°42' W 095°03'0 0.0
2018-Feb-20 04:00N 29°42' W 095°03'0 0.0
2018-Feb-20 03:30N 29°42' W 095°03'0 0.0
2018-Feb-20 02:59N 29°42' W 095°03'0 0.0
2018-Feb-20 02:30N 29°42' W 095°03'0 0.0
2018-Feb-20 02:00N 29°42' W 095°03'0 0.0
2018-Feb-20 01:30N 29°42' W 095°03'0 0.0
2018-Feb-20 01:00N 29°42' W 095°03'0 0.0
2018-Feb-20 00:30N 29°42' W 095°03'0 0.0
2018-Feb-20 00:00N 29°42' W 095°03'0 0.0
2018-Feb-19 23:30N 29°42' W 095°03'0 0.0
2018-Feb-19 23:00N 29°42' W 095°03'0 0.0
2018-Feb-19 22:30N 29°42' W 095°03'0 0.0
2018-Feb-19 22:00N 29°42' W 095°03'0 0.0
2018-Feb-19 21:30N 29°42' W 095°03'0 0.0
2018-Feb-19 21:00N 29°42' W 095°03'0 0.0
2018-Feb-19 20:30N 29°42' W 095°03'0 0.0
2018-Feb-19 20:00N 29°42' W 095°03'0 0.0
2018-Feb-19 19:29N 29°42' W 095°03'0 0.0
2018-Feb-19 18:52N 29°42' W 095°03'0 0.0
2018-Feb-19 18:30N 29°42' W 095°03'0 0.0
2018-Feb-19 18:00N 29°42' W 095°03'0 0.0
2018-Feb-19 17:30N 29°42' W 095°03'0 0.0
2018-Feb-19 17:00N 29°42' W 095°03'0 0.0
2018-Feb-19 16:30N 29°42' W 095°03'0 0.0
2018-Feb-19 16:00N 29°42' W 095°03'0 0.0
2018-Feb-19 15:30N 29°42' W 095°03'0 0.0
2018-Feb-19 15:00N 29°42' W 095°03'0 0.0
2018-Feb-19 14:30N 29°42' W 095°03'0 0.0
2018-Feb-19 14:00N 29°42' W 095°03'0 0.0
2018-Feb-19 13:29N 29°42' W 095°03'0 0.2
2018-Feb-19 13:00N 29°42' W 095°03'0 0.0
2018-Feb-19 12:30N 29°42' W 095°03'0 0.0
2018-Feb-19 12:00N 29°42' W 095°03'0 0.0
2018-Feb-19 11:30N 29°42' W 095°03'0 0.0
2018-Feb-19 11:00N 29°42' W 095°03'0 0.0
2018-Feb-19 10:29N 29°42' W 095°03'0 0.0
2018-Feb-19 10:00N 29°42' W 095°03'0 0.0
2018-Feb-19 09:29N 29°42' W 095°03'0 0.0
2018-Feb-19 09:00N 29°42' W 095°03'0 0.0
2018-Feb-19 08:30N 29°42' W 095°03'0 0.0
2018-Feb-19 08:00N 29°42' W 095°03'0 0.0
2018-Feb-19 07:30N 29°42' W 095°03'0 0.0
2018-Feb-19 07:00N 29°42' W 095°03'0 0.0
2018-Feb-19 06:30N 29°42' W 095°03'0 0.0
2018-Feb-19 06:00N 29°42' W 095°03'0 0.0
2018-Feb-19 05:29N 29°42' W 095°03'0 0.0
2018-Feb-19 05:00N 29°42' W 095°03'0 0.0
2018-Feb-19 04:30N 29°42' W 095°03'0 0.0
2018-Feb-19 04:00N 29°42' W 095°03'0 0.0
2018-Feb-19 03:30N 29°42' W 095°03'0 0.0
2018-Feb-19 03:00N 29°42' W 095°03'0 0.0
2018-Feb-19 02:30N 29°42' W 095°03'0 0.0
2018-Feb-19 02:00N 29°42' W 095°03'0 0.0
2018-Feb-19 01:29N 29°42' W 095°03'0 0.0
2018-Feb-19 00:59N 29°42' W 095°03'0 0.0
2018-Feb-19 00:30N 29°42' W 095°03'0 0.0
2018-Feb-19 00:00N 29°42' W 095°03'0 0.0
2018-Feb-18 23:30N 29°42' W 095°03'0 0.0
2018-Feb-18 23:00N 29°42' W 095°03'0 0.0
2018-Feb-18 22:28N 29°42' W 095°03'0 0.0
2018-Feb-18 22:00N 29°42' W 095°03'0 0.0
2018-Feb-18 21:30N 29°42' W 095°03'0 0.0
2018-Feb-18 21:00N 29°42' W 095°03'0 0.0
2018-Feb-18 20:30N 29°42' W 095°03'0 0.0
2018-Feb-18 20:00N 29°42' W 095°03'0 0.0
2018-Feb-18 19:30N 29°42' W 095°03'0 0.0
2018-Feb-18 19:00N 29°42' W 095°03'0 0.0
2018-Feb-18 18:30N 29°42' W 095°03'0 0.0
2018-Feb-18 18:00N 29°42' W 095°03'0 0.0
2018-Feb-18 17:30N 29°42' W 095°03'0 0.0
2018-Feb-18 17:00N 29°42' W 095°03'0 0.0
2018-Feb-18 16:30N 29°42' W 095°03'0 0.0
2018-Feb-18 16:00N 29°42' W 095°03'0 0.0
2018-Feb-18 15:30N 29°42' W 095°03'0 0.0
2018-Feb-18 15:00N 29°42' W 095°03'0 0.0
2018-Feb-18 14:30N 29°42' W 095°03'0 0.0
2018-Feb-18 13:57N 29°42' W 095°03'0 0.0
2018-Feb-18 13:30N 29°42' W 095°03'0 0.0
2018-Feb-18 13:00N 29°42' W 095°03'0 0.0
2018-Feb-18 12:30N 29°42' W 095°03'0 0.0
2018-Feb-18 11:59N 29°42' W 095°03'0 0.0
2018-Feb-18 11:30N 29°42' W 095°03'0 0.0
2018-Feb-18 10:59N 29°42' W 095°03'0 0.0
2018-Feb-18 10:29N 29°42' W 095°03'0 0.0
2018-Feb-18 09:57N 29°42' W 095°03'0 0.0
2018-Feb-18 09:30N 29°42' W 095°03'0 0.0
2018-Feb-18 09:00N 29°42' W 095°03'0 0.0
2018-Feb-18 08:30N 29°42' W 095°03'0 0.0
2018-Feb-18 08:00N 29°42' W 095°03'0 0.0
2018-Feb-18 07:27N 29°42' W 095°03'0 0.0
2018-Feb-18 06:51N 29°42' W 095°03'0 0.0
2018-Feb-18 06:25N 29°42' W 095°03'0 0.0
2018-Feb-18 04:44N 29°42' W 095°03'0 0.0
2018-Feb-18 04:30N 29°42' W 095°03'0 0.0
2018-Feb-18 04:00N 29°42' W 095°03'0 0.0
2018-Feb-18 03:30N 29°42' W 095°03'0 0.0
2018-Feb-18 02:59N 29°42' W 095°03'0 0.0
2018-Feb-18 02:30N 29°42' W 095°03'0 0.0
2018-Feb-18 01:54N 29°42' W 095°03'0 0.0
2018-Feb-18 01:25N 29°42' W 095°03'0 0.0
2018-Feb-18 00:59N 29°42' W 095°03'0 0.0
2018-Feb-18 00:29N 29°42' W 095°03'0 0.0
2018-Feb-18 00:00N 29°42' W 095°03'0 0.0
2018-Feb-17 23:29N 29°42' W 095°03'0 0.0
2018-Feb-17 23:00N 29°42' W 095°03'0 0.0
2018-Feb-17 22:30N 29°42' W 095°03'0 0.0
2018-Feb-17 22:00N 29°42' W 095°03'0 0.0
2018-Feb-17 21:30N 29°42' W 095°03'0 0.0
2018-Feb-17 21:00N 29°42' W 095°03'0 0.0
2018-Feb-17 20:28N 29°42' W 095°03'0 0.1
2018-Feb-17 20:00N 29°42' W 095°03'1 2.5
2018-Feb-17 19:30N 29°42' W 095°01'2 4.8
2018-Feb-17 19:00N 29°41' W 094°59'3 5.9
2018-Feb-17 18:30N 29°38' W 094°58'3 6.0
2018-Feb-17 18:00N 29°36' W 094°56'3 5.9
2018-Feb-17 17:30N 29°33' W 094°55'3 5.8
2018-Feb-17 17:00N 29°31' W 094°53'10 1.9
2018-Feb-17 11:58N 29°25' W 094°44'0 0.0
2018-Feb-17 09:01N 29°25' W 094°44'0 0.0
2018-Feb-17 08:43N 29°25' W 094°44'0 0.0
2018-Feb-17 08:27N 29°25' W 094°44'0 0.0
2018-Feb-17 08:00N 29°25' W 094°44'0 0.0
2018-Feb-17 07:27N 29°25' W 094°44'0 0.0
2018-Feb-17 06:52N 29°25' W 094°44'0 0.0
2018-Feb-17 06:25N 29°25' W 094°44'0 0.0
2018-Feb-17 05:57N 29°25' W 094°44'0 0.0
2018-Feb-17 05:28N 29°25' W 094°44'0 0.0
2018-Feb-17 04:58N 29°25' W 094°44'0 0.0
2018-Feb-17 04:30N 29°25' W 094°44'0 0.0
2018-Feb-17 03:58N 29°25' W 094°44'0 0.0
2018-Feb-17 03:30N 29°25' W 094°44'0 0.0
2018-Feb-17 03:00N 29°25' W 094°44'1 1.2
2018-Feb-17 02:27N 29°25' W 094°44'2 5.5
2018-Feb-17 02:00N 29°23' W 094°46'0 0.5
2018-Feb-17 01:30N 29°23' W 094°46'21 2.1
2018-Feb-16 15:18N 29°34' W 094°25'0 0.5
2018-Feb-16 14:59N 29°34' W 094°25'3 2.2
2018-Feb-16 13:30N 29°36' W 094°22'2 4.8
2018-Feb-16 13:00N 29°37' W 094°20'3 5.6
2018-Feb-16 12:30N 29°39' W 094°17'2 3.8
2018-Feb-16 12:00N 29°40' W 094°15'0 0.0
2018-Feb-16 11:30N 29°40' W 094°15'0 0.0
2018-Feb-16 11:00N 29°40' W 094°15'0 0.0
2018-Feb-16 10:30N 29°40' W 094°15'0 0.0
2018-Feb-16 10:00N 29°40' W 094°15'0 0.0
2018-Feb-16 09:29N 29°40' W 094°15'0 0.0
2018-Feb-16 08:59N 29°40' W 094°15'0 0.0
2018-Feb-16 08:29N 29°40' W 094°15'0 0.0
2018-Feb-16 07:38N 29°40' W 094°15'0 3.0
2018-Feb-16 07:30N 29°39' W 094°15'2 4.7
2018-Feb-16 07:00N 29°38' W 094°18'2 4.6
2018-Feb-16 06:30N 29°37' W 094°20'2 4.1
2018-Feb-16 06:00N 29°36' W 094°22'1 1.0
2018-Feb-16 04:41N 29°36' W 094°23'0 0.0
2018-Feb-16 04:20N 29°36' W 094°23'0 0.0
2018-Feb-16 03:42N 29°36' W 094°23'0 0.0
2018-Feb-16 03:28N 29°36' W 094°23'0 0.0
2018-Feb-16 02:58N 29°36' W 094°23'1 1.2
2018-Feb-16 02:30N 29°36' W 094°23'3 6.5
2018-Feb-16 02:00N 29°37' W 094°19'4 6.8
2018-Feb-16 01:29N 29°39' W 094°16'1 2.1
2018-Feb-16 00:59N 29°40' W 094°15'0 0.0
2018-Feb-16 00:30N 29°40' W 094°15'0 0.0
2018-Feb-16 00:00N 29°40' W 094°15'0 0.0
2018-Feb-15 23:30N 29°40' W 094°15'0 0.0
2018-Feb-15 22:58N 29°40' W 094°15'0 0.1
2018-Feb-15 22:30N 29°40' W 094°15'0 0.1
2018-Feb-15 22:00N 29°40' W 094°15'0 0.0
2018-Feb-15 21:30N 29°40' W 094°15'0 0.0
2018-Feb-15 21:00N 29°40' W 094°15'0 0.0
2018-Feb-15 20:28N 29°40' W 094°15'0 0.1
2018-Feb-15 19:56N 29°40' W 094°15'0 0.0
2018-Feb-15 19:28N 29°40' W 094°15'0 0.1
2018-Feb-15 19:00N 29°40' W 094°15'0 0.0
2018-Feb-15 18:30N 29°40' W 094°15'0 0.0
2018-Feb-15 18:00N 29°40' W 094°15'0 0.0
2018-Feb-15 17:29N 29°40' W 094°15'0 0.0
2018-Feb-15 17:00N 29°40' W 094°15'0 0.1
2018-Feb-15 16:28N 29°40' W 094°15'0 0.1
2018-Feb-15 16:00N 29°40' W 094°15'0 0.1
2018-Feb-15 15:30N 29°40' W 094°15'0 0.1
2018-Feb-15 15:00N 29°40' W 094°15'0 0.0
2018-Feb-15 14:30N 29°40' W 094°15'0 0.0
2018-Feb-15 07:34N 29°40' W 094°15'0 0.0
2018-Feb-15 06:11N 29°40' W 094°15'0 0.0
2018-Feb-15 05:54N 29°40' W 094°15'0 0.0
2018-Feb-15 04:52N 29°40' W 094°15'0 0.0
2018-Feb-15 04:29N 29°40' W 094°15'0 0.1
2018-Feb-15 04:00N 29°40' W 094°15'0 0.0
2018-Feb-15 02:55N 29°40' W 094°15'0 0.0
2018-Feb-15 01:21N 29°40' W 094°15'0 0.0
2018-Feb-15 00:56N 29°40' W 094°15'  
Track history (hours):
 
Tides and Currents Weather Stations Pressure Air Temp Water Temp Dewpoint Dewpoint Depression Visibility Wind Speed Wind Dir Waves Ship Positions

MiSS Aimee

Owner: PATTERSON MARINE INC, MORGAN CITY, LA. More information available from US FCC via Universal Licensing System and Coast Guard Vessel Documentation Center.

Last reported at 2018-Feb-24 23:55 UTC. Time now 2018-Feb-25 00:19 UTC.
Position N 29°42' W 095°03'.

Length 16 m.

MMSI: 367060130.

Date/timePositionNaut miles runAvg speedWind from/ knotsBaromVisibWave heightAir tempDewpointWater temp
2018-Feb-24 23:55N 29°42' W 095°03'0 0.0
2018-Feb-24 23:29N 29°42' W 095°03'0 0.0
2018-Feb-24 22:59N 29°42' W 095°03'0 0.0
2018-Feb-24 22:30N 29°42' W 095°03'0 0.0
2018-Feb-24 22:00N 29°42' W 095°03'0 0.0
2018-Feb-24 21:29N 29°42' W 095°03'0 0.0
2018-Feb-24 21:01N 29°42' W 095°03'0 0.0
2018-Feb-24 20:31N 29°42' W 095°03'0 0.6
2018-Feb-24 20:01N 29°42' W 095°03'1 1.9
2018-Feb-24 19:17N 29°44' W 095°02'11 0.4
2018-Feb-23 16:44N 29°43' W 095°14'1 0.2
2018-Feb-23 12:25N 29°43' W 095°15'0 0.0
2018-Feb-23 09:33N 29°43' W 095°15'0 0.0
2018-Feb-23 09:29N 29°43' W 095°15'0 0.0
2018-Feb-23 06:19N 29°43' W 095°15'0 0.0
2018-Feb-23 04:46N 29°43' W 095°15'0 0.0
2018-Feb-23 03:47N 29°43' W 095°15'0 0.0
2018-Feb-23 03:19N 29°43' W 095°15'3 0.7
2018-Feb-22 22:13N 29°45' W 095°12'2 5.7
2018-Feb-22 21:55N 29°44' W 095°10'2 6.2
2018-Feb-22 21:31N 29°44' W 095°07'3 4.1
2018-Feb-22 20:51N 29°44' W 095°04'2 5.5
2018-Feb-22 20:24N 29°43' W 095°01'1 3.5
2018-Feb-22 20:00N 29°43' W 095°03'0 0.5
2018-Feb-22 19:30N 29°42' W 095°03'0 0.0
2018-Feb-22 19:00N 29°42' W 095°03'0 0.0
2018-Feb-22 18:28N 29°42' W 095°03'0 0.0
2018-Feb-22 17:56N 29°42' W 095°03'0 0.0
2018-Feb-22 17:30N 29°42' W 095°03'0 0.0
2018-Feb-22 16:53N 29°42' W 095°03'0 0.0
2018-Feb-22 16:27N 29°42' W 095°03'0 0.0
2018-Feb-22 15:58N 29°42' W 095°03'0 0.0
2018-Feb-22 15:31N 29°42' W 095°03'0 0.0
2018-Feb-22 15:00N 29°42' W 095°03'0 0.0
2018-Feb-22 14:23N 29°42' W 095°03'0 0.0
2018-Feb-22 13:54N 29°42' W 095°03'0 0.0
2018-Feb-22 12:09N 29°42' W 095°03'0 0.0
2018-Feb-22 11:51N 29°42' W 095°03'0 0.0
2018-Feb-22 11:24N 29°42' W 095°03'0 0.0
2018-Feb-22 10:57N 29°42' W 095°03'0 0.0
2018-Feb-22 10:30N 29°42' W 095°03'0 0.0
2018-Feb-22 09:55N 29°42' W 095°03'0 0.0
2018-Feb-22 09:24N 29°42' W 095°03'0 0.0
2018-Feb-22 08:47N 29°42' W 095°03'0 0.0
2018-Feb-22 08:30N 29°42' W 095°03'0 0.0
2018-Feb-22 07:51N 29°42' W 095°03'0 0.0
2018-Feb-22 07:15N 29°42' W 095°03'0 0.0
2018-Feb-22 07:00N 29°42' W 095°03'0 0.0
2018-Feb-22 06:23N 29°42' W 095°03'0 0.0
2018-Feb-22 04:55N 29°42' W 095°03'0 0.0
2018-Feb-22 04:30N 29°42' W 095°03'0 0.0
2018-Feb-22 03:50N 29°42' W 095°03'0 0.0
2018-Feb-22 03:29N 29°42' W 095°03'0 0.0
2018-Feb-22 02:59N 29°42' W 095°03'0 0.0
2018-Feb-22 02:24N 29°42' W 095°03'0 0.0
2018-Feb-22 01:54N 29°42' W 095°03'0 0.0
2018-Feb-22 01:29N 29°42' W 095°03'0 0.0
2018-Feb-22 01:00N 29°42' W 095°03'0 0.0
2018-Feb-22 00:19N 29°42' W 095°03'0 0.0
2018-Feb-21 23:39N 29°42' W 095°03'0 0.0
2018-Feb-21 23:30N 29°42' W 095°03'0 0.0
2018-Feb-21 22:54N 29°42' W 095°03'0 0.0
2018-Feb-21 22:29N 29°42' W 095°03'0 0.0
2018-Feb-21 21:59N 29°42' W 095°03'0 0.0
2018-Feb-21 14:35N 29°42' W 095°03'0 0.0
2018-Feb-21 14:29N 29°42' W 095°03'0 0.0
2018-Feb-21 13:57N 29°42' W 095°03'0 0.0
2018-Feb-21 13:29N 29°42' W 095°03'0 0.0
2018-Feb-21 13:00N 29°42' W 095°03'0 0.0
2018-Feb-21 12:27N 29°42' W 095°03'0 0.0
2018-Feb-21 11:59N 29°42' W 095°03'0 0.0
2018-Feb-21 11:29N 29°42' W 095°03'0 0.0
2018-Feb-21 10:59N 29°42' W 095°03'0 0.0
2018-Feb-21 10:24N 29°42' W 095°03'0 0.0
2018-Feb-21 10:00N 29°42' W 095°03'0 0.0
2018-Feb-21 09:30N 29°42' W 095°03'0 0.0
2018-Feb-21 09:00N 29°42' W 095°03'0 0.0
2018-Feb-21 08:26N 29°42' W 095°03'0 0.0
2018-Feb-21 07:59N 29°42' W 095°03'0 0.0
2018-Feb-21 07:30N 29°42' W 095°03'0 0.0
2018-Feb-21 06:59N 29°42' W 095°03'0 0.0
2018-Feb-21 06:29N 29°42' W 095°03'0 0.0
2018-Feb-21 05:56N 29°42' W 095°03'0 0.0
2018-Feb-21 05:30N 29°42' W 095°03'0 0.0
2018-Feb-21 04:59N 29°42' W 095°03'0 0.0
2018-Feb-21 04:30N 29°42' W 095°03'0 0.0
2018-Feb-21 04:00N 29°42' W 095°03'0 0.0
2018-Feb-21 03:30N 29°42' W 095°03'0 0.0
2018-Feb-21 03:00N 29°42' W 095°03'0 0.0
2018-Feb-21 02:30N 29°42' W 095°03'0 0.0
2018-Feb-21 02:00N 29°42' W 095°03'0 0.0
2018-Feb-21 01:28N 29°42' W 095°03'0 0.0
2018-Feb-21 01:00N 29°42' W 095°03'0 0.0
2018-Feb-21 00:30N 29°42' W 095°03'0 0.4
2018-Feb-20 23:53N 29°42' W 095°03'0 0.5
2018-Feb-20 23:29N 29°42' W 095°03'0 0.0
2018-Feb-20 22:57N 29°42' W 095°03'0 0.0
2018-Feb-20 22:22N 29°42' W 095°03'0 0.1
2018-Feb-20 21:58N 29°42' W 095°03'0 0.0
2018-Feb-20 21:30N 29°42' W 095°03'0 0.0
2018-Feb-20 21:00N 29°42' W 095°03'0 0.0
2018-Feb-20 15:57N 29°42' W 095°03'0 0.0
2018-Feb-20 15:30N 29°42' W 095°03'0 0.0
2018-Feb-20 15:00N 29°42' W 095°03'0 0.2
2018-Feb-20 14:30N 29°42' W 095°03'0 0.0
2018-Feb-20 14:00N 29°42' W 095°03'0 0.0
2018-Feb-20 13:30N 29°42' W 095°03'0 0.0
2018-Feb-20 11:50N 29°42' W 095°03'0 0.0
2018-Feb-20 11:09N 29°42' W 095°03'0 0.0
2018-Feb-20 09:49N 29°42' W 095°03'0 0.0
2018-Feb-20 09:28N 29°42' W 095°03'0 0.0
2018-Feb-20 08:59N 29°42' W 095°03'0 0.0
2018-Feb-20 08:23N 29°42' W 095°03'0 0.0
2018-Feb-20 08:00N 29°42' W 095°03'0 0.0
2018-Feb-20 07:30N 29°42' W 095°03'0 0.0
2018-Feb-20 07:00N 29°42' W 095°03'0 0.0
2018-Feb-20 06:30N 29°42' W 095°03'0 0.0
2018-Feb-20 06:00N 29°42' W 095°03'0 0.0
2018-Feb-20 05:29N 29°42' W 095°03'0 0.0
2018-Feb-20 04:59N 29°42' W 095°03'0 0.0
2018-Feb-20 04:30N 29°42' W 095°03'0 0.0
2018-Feb-20 04:00N 29°42' W 095°03'0 0.0
2018-Feb-20 03:30N 29°42' W 095°03'0 0.0
2018-Feb-20 02:59N 29°42' W 095°03'0 0.0
2018-Feb-20 02:30N 29°42' W 095°03'0 0.0
2018-Feb-20 02:00N 29°42' W 095°03'0 0.0
2018-Feb-20 01:30N 29°42' W 095°03'0 0.0
2018-Feb-20 01:00N 29°42' W 095°03'0 0.0
2018-Feb-20 00:30N 29°42' W 095°03'0 0.0
2018-Feb-20 00:00N 29°42' W 095°03'0 0.0
2018-Feb-19 23:30N 29°42' W 095°03'0 0.0
2018-Feb-19 23:00N 29°42' W 095°03'0 0.0
2018-Feb-19 22:30N 29°42' W 095°03'0 0.0
2018-Feb-19 22:00N 29°42' W 095°03'0 0.0
2018-Feb-19 21:30N 29°42' W 095°03'0 0.0
2018-Feb-19 21:00N 29°42' W 095°03'0 0.0
2018-Feb-19 20:30N 29°42' W 095°03'0 0.0
2018-Feb-19 20:00N 29°42' W 095°03'0 0.0
2018-Feb-19 19:29N 29°42' W 095°03'0 0.0
2018-Feb-19 18:52N 29°42' W 095°03'0 0.0
2018-Feb-19 18:30N 29°42' W 095°03'0 0.0
2018-Feb-19 18:00N 29°42' W 095°03'0 0.0
2018-Feb-19 17:30N 29°42' W 095°03'0 0.0
2018-Feb-19 17:00N 29°42' W 095°03'0 0.0
2018-Feb-19 16:30N 29°42' W 095°03'0 0.0
2018-Feb-19 16:00N 29°42' W 095°03'0 0.0
2018-Feb-19 15:30N 29°42' W 095°03'0 0.0
2018-Feb-19 15:00N 29°42' W 095°03'0 0.0
2018-Feb-19 14:30N 29°42' W 095°03'0 0.0
2018-Feb-19 14:00N 29°42' W 095°03'0 0.0
2018-Feb-19 13:29N 29°42' W 095°03'0 0.2
2018-Feb-19 13:00N 29°42' W 095°03'0 0.0
2018-Feb-19 12:30N 29°42' W 095°03'0 0.0
2018-Feb-19 12:00N 29°42' W 095°03'0 0.0
2018-Feb-19 11:30N 29°42' W 095°03'0 0.0
2018-Feb-19 11:00N 29°42' W 095°03'0 0.0
2018-Feb-19 10:29N 29°42' W 095°03'0 0.0
2018-Feb-19 10:00N 29°42' W 095°03'0 0.0
2018-Feb-19 09:29N 29°42' W 095°03'0 0.0
2018-Feb-19 09:00N 29°42' W 095°03'0 0.0
2018-Feb-19 08:30N 29°42' W 095°03'0 0.0
2018-Feb-19 08:00N 29°42' W 095°03'0 0.0
2018-Feb-19 07:30N 29°42' W 095°03'0 0.0
2018-Feb-19 07:00N 29°42' W 095°03'0 0.0
2018-Feb-19 06:30N 29°42' W 095°03'0 0.0
2018-Feb-19 06:00N 29°42' W 095°03'0 0.0
2018-Feb-19 05:29N 29°42' W 095°03'0 0.0
2018-Feb-19 05:00N 29°42' W 095°03'0 0.0
2018-Feb-19 04:30N 29°42' W 095°03'0 0.0
2018-Feb-19 04:00N 29°42' W 095°03'0 0.0
2018-Feb-19 03:30N 29°42' W 095°03'0 0.0
2018-Feb-19 03:00N 29°42' W 095°03'0 0.0
2018-Feb-19 02:30N 29°42' W 095°03'0 0.0
2018-Feb-19 02:00N 29°42' W 095°03'0 0.0
2018-Feb-19 01:29N 29°42' W 095°03'0 0.0
2018-Feb-19 00:59N 29°42' W 095°03'0 0.0
2018-Feb-19 00:30N 29°42' W 095°03'0 0.0
2018-Feb-19 00:00N 29°42' W 095°03'0 0.0
2018-Feb-18 23:30N 29°42' W 095°03'0 0.0
2018-Feb-18 23:00N 29°42' W 095°03'0 0.0
2018-Feb-18 22:28N 29°42' W 095°03'0 0.0
2018-Feb-18 22:00N 29°42' W 095°03'0 0.0
2018-Feb-18 21:30N 29°42' W 095°03'0 0.0
2018-Feb-18 21:00N 29°42' W 095°03'0 0.0
2018-Feb-18 20:30N 29°42' W 095°03'0 0.0
2018-Feb-18 20:00N 29°42' W 095°03'0 0.0
2018-Feb-18 19:30N 29°42' W 095°03'0 0.0
2018-Feb-18 19:00N 29°42' W 095°03'0 0.0
2018-Feb-18 18:30N 29°42' W 095°03'0 0.0
2018-Feb-18 18:00N 29°42' W 095°03'0 0.0
2018-Feb-18 17:30N 29°42' W 095°03'0 0.0
2018-Feb-18 17:00N 29°42' W 095°03'0 0.0
2018-Feb-18 16:30N 29°42' W 095°03'0 0.0
2018-Feb-18 16:00N 29°42' W 095°03'0 0.0
2018-Feb-18 15:30N 29°42' W 095°03'0 0.0
2018-Feb-18 15:00N 29°42' W 095°03'0 0.0
2018-Feb-18 14:30N 29°42' W 095°03'0 0.0
2018-Feb-18 13:57N 29°42' W 095°03'0 0.0
2018-Feb-18 13:30N 29°42' W 095°03'0 0.0
2018-Feb-18 13:00N 29°42' W 095°03'0 0.0
2018-Feb-18 12:30N 29°42' W 095°03'0 0.0
2018-Feb-18 11:59N 29°42' W 095°03'0 0.0
2018-Feb-18 11:30N 29°42' W 095°03'0 0.0
2018-Feb-18 10:59N 29°42' W 095°03'0 0.0
2018-Feb-18 10:29N 29°42' W 095°03'0 0.0
2018-Feb-18 09:57N 29°42' W 095°03'0 0.0
2018-Feb-18 09:30N 29°42' W 095°03'0 0.0
2018-Feb-18 09:00N 29°42' W 095°03'0 0.0
2018-Feb-18 08:30N 29°42' W 095°03'0 0.0
2018-Feb-18 08:00N 29°42' W 095°03'0 0.0
2018-Feb-18 07:27N 29°42' W 095°03'0 0.0
2018-Feb-18 06:51N 29°42' W 095°03'0 0.0
2018-Feb-18 06:25N 29°42' W 095°03'0 0.0
2018-Feb-18 04:44N 29°42' W 095°03'0 0.0
2018-Feb-18 04:30N 29°42' W 095°03'0 0.0
2018-Feb-18 04:00N 29°42' W 095°03'0 0.0
2018-Feb-18 03:30N 29°42' W 095°03'0 0.0
2018-Feb-18 02:59N 29°42' W 095°03'0 0.0
2018-Feb-18 02:30N 29°42' W 095°03'0 0.0
2018-Feb-18 01:54N 29°42' W 095°03'0 0.0
2018-Feb-18 01:25N 29°42' W 095°03'0 0.0
2018-Feb-18 00:59N 29°42' W 095°03'0 0.0
2018-Feb-18 00:29N 29°42' W 095°03'0 0.0
2018-Feb-18 00:00N 29°42' W 095°03'0 0.0
2018-Feb-17 23:29N 29°42' W 095°03'0 0.0
2018-Feb-17 23:00N 29°42' W 095°03'0 0.0
2018-Feb-17 22:30N 29°42' W 095°03'0 0.0
2018-Feb-17 22:00N 29°42' W 095°03'0 0.0
2018-Feb-17 21:30N 29°42' W 095°03'0 0.0
2018-Feb-17 21:00N 29°42' W 095°03'0 0.0
2018-Feb-17 20:28N 29°42' W 095°03'0 0.1
2018-Feb-17 20:00N 29°42' W 095°03'1 2.5
2018-Feb-17 19:30N 29°42' W 095°01'2 4.8
2018-Feb-17 19:00N 29°41' W 094°59'3 5.9
2018-Feb-17 18:30N 29°38' W 094°58'3 6.0
2018-Feb-17 18:00N 29°36' W 094°56'3 5.9
2018-Feb-17 17:30N 29°33' W 094°55'3 5.8
2018-Feb-17 17:00N 29°31' W 094°53'10 1.9
2018-Feb-17 11:58N 29°25' W 094°44'0 0.0
2018-Feb-17 09:01N 29°25' W 094°44'0 0.0
2018-Feb-17 08:43N 29°25' W 094°44'0 0.0
2018-Feb-17 08:27N 29°25' W 094°44'0 0.0
2018-Feb-17 08:00N 29°25' W 094°44'0 0.0
2018-Feb-17 07:27N 29°25' W 094°44'0 0.0
2018-Feb-17 06:52N 29°25' W 094°44'0 0.0
2018-Feb-17 06:25N 29°25' W 094°44'0 0.0
2018-Feb-17 05:57N 29°25' W 094°44'0 0.0
2018-Feb-17 05:28N 29°25' W 094°44'0 0.0
2018-Feb-17 04:58N 29°25' W 094°44'0 0.0
2018-Feb-17 04:30N 29°25' W 094°44'0 0.0
2018-Feb-17 03:58N 29°25' W 094°44'0 0.0
2018-Feb-17 03:30N 29°25' W 094°44'0 0.0
2018-Feb-17 03:00N 29°25' W 094°44'1 1.2
2018-Feb-17 02:27N 29°25' W 094°44'2 5.5
2018-Feb-17 02:00N 29°23' W 094°46'0 0.5
2018-Feb-17 01:30N 29°23' W 094°46'21 2.1
2018-Feb-16 15:18N 29°34' W 094°25'0 0.5
2018-Feb-16 14:59N 29°34' W 094°25'3 2.2
2018-Feb-16 13:30N 29°36' W 094°22'2 4.8
2018-Feb-16 13:00N 29°37' W 094°20'3 5.6
2018-Feb-16 12:30N 29°39' W 094°17'2 3.8
2018-Feb-16 12:00N 29°40' W 094°15'0 0.0
2018-Feb-16 11:30N 29°40' W 094°15'0 0.0
2018-Feb-16 11:00N 29°40' W 094°15'0 0.0
2018-Feb-16 10:30N 29°40' W 094°15'0 0.0
2018-Feb-16 10:00N 29°40' W 094°15'0 0.0
2018-Feb-16 09:29N 29°40' W 094°15'0 0.0
2018-Feb-16 08:59N 29°40' W 094°15'0 0.0
2018-Feb-16 08:29N 29°40' W 094°15'0 0.0
2018-Feb-16 07:38N 29°40' W 094°15'0 3.0
2018-Feb-16 07:30N 29°39' W 094°15'2 4.7
2018-Feb-16 07:00N 29°38' W 094°18'2 4.6
2018-Feb-16 06:30N 29°37' W 094°20'2 4.1
2018-Feb-16 06:00N 29°36' W 094°22'1 1.0
2018-Feb-16 04:41N 29°36' W 094°23'0 0.0
2018-Feb-16 04:20N 29°36' W 094°23'0 0.0
2018-Feb-16 03:42N 29°36' W 094°23'0 0.0
2018-Feb-16 03:28N 29°36' W 094°23'0 0.0
2018-Feb-16 02:58N 29°36' W 094°23'1 1.2
2018-Feb-16 02:30N 29°36' W 094°23'3 6.5
2018-Feb-16 02:00N 29°37' W 094°19'4 6.8
2018-Feb-16 01:29N 29°39' W 094°16'1 2.1
2018-Feb-16 00:59N 29°40' W 094°15'0 0.0
2018-Feb-16 00:30N 29°40' W 094°15'0 0.0
2018-Feb-16 00:00N 29°40' W 094°15'0 0.0
2018-Feb-15 23:30N 29°40' W 094°15'0 0.0
2018-Feb-15 22:58N 29°40' W 094°15'0 0.1
2018-Feb-15 22:30N 29°40' W 094°15'0 0.1
2018-Feb-15 22:00N 29°40' W 094°15'0 0.0
2018-Feb-15 21:30N 29°40' W 094°15'0 0.0
2018-Feb-15 21:00N 29°40' W 094°15'0 0.0
2018-Feb-15 20:28N 29°40' W 094°15'0 0.1
2018-Feb-15 19:56N 29°40' W 094°15'0 0.0
2018-Feb-15 19:28N 29°40' W 094°15'0 0.1
2018-Feb-15 19:00N 29°40' W 094°15'0 0.0
2018-Feb-15 18:30N 29°40' W 094°15'0 0.0
2018-Feb-15 18:00N 29°40' W 094°15'0 0.0
2018-Feb-15 17:29N 29°40' W 094°15'0 0.0
2018-Feb-15 17:00N 29°40' W 094°15'0 0.1
2018-Feb-15 16:28N 29°40' W 094°15'0 0.1
2018-Feb-15 16:00N 29°40' W 094°15'0 0.1
2018-Feb-15 15:30N 29°40' W 094°15'0 0.1
2018-Feb-15 15:00N 29°40' W 094°15'0 0.0
2018-Feb-15 14:30N 29°40' W 094°15'0 0.0
2018-Feb-15 07:34N 29°40' W 094°15'0 0.0
2018-Feb-15 06:11N 29°40' W 094°15'0 0.0
2018-Feb-15 05:54N 29°40' W 094°15'0 0.0
2018-Feb-15 04:52N 29°40' W 094°15'0 0.0
2018-Feb-15 04:29N 29°40' W 094°15'0 0.1
2018-Feb-15 04:00N 29°40' W 094°15'0 0.0
2018-Feb-15 02:55N 29°40' W 094°15'0 0.0
2018-Feb-15 01:21N 29°40' W 094°15'0 0.0
2018-Feb-15 00:56N 29°40' W 094°15'  

Dump ship's entire track history